sensor_id;sensor_type;location;lat;lon;timestamp;P1;durP1;ratioP1;P2;durP2;ratioP2
24096;SDS011;12275;48.550;12.132;2022-08-18T00:01:07;7.03;;;5.53;;
24096;SDS011;12275;48.550;12.132;2022-08-18T00:03:38;14.80;;;5.13;;
24096;SDS011;12275;48.550;12.132;2022-08-18T00:06:05;11.13;;;5.32;;
24096;SDS011;12275;48.550;12.132;2022-08-18T00:08:31;11.05;;;5.60;;
24096;SDS011;12275;48.550;12.132;2022-08-18T00:10:57;7.03;;;5.43;;
24096;SDS011;12275;48.550;12.132;2022-08-18T00:13:24;6.70;;;5.35;;
24096;SDS011;12275;48.550;12.132;2022-08-18T00:15:49;6.03;;;5.13;;
24096;SDS011;12275;48.550;12.132;2022-08-18T00:18:15;9.77;;;5.38;;
24096;SDS011;12275;48.550;12.132;2022-08-18T00:20:41;6.07;;;5.43;;
24096;SDS011;12275;48.550;12.132;2022-08-18T00:23:07;8.40;;;5.88;;
24096;SDS011;12275;48.550;12.132;2022-08-18T00:25:33;8.52;;;5.45;;
24096;SDS011;12275;48.550;12.132;2022-08-18T00:27:59;9.30;;;5.65;;
24096;SDS011;12275;48.550;12.132;2022-08-18T00:30:25;9.05;;;6.07;;
24096;SDS011;12275;48.550;12.132;2022-08-18T00:32:55;6.40;;;5.70;;
24096;SDS011;12275;48.550;12.132;2022-08-18T00:35:23;8.57;;;6.38;;
24096;SDS011;12275;48.550;12.132;2022-08-18T00:37:55;8.60;;;5.38;;
24096;SDS011;12275;48.550;12.132;2022-08-18T00:40:23;8.05;;;5.68;;
24096;SDS011;12275;48.550;12.132;2022-08-18T00:42:59;7.72;;;6.10;;
24096;SDS011;12275;48.550;12.132;2022-08-18T00:45:28;7.28;;;6.38;;
24096;SDS011;12275;48.550;12.132;2022-08-18T00:48:03;6.60;;;6.00;;
24096;SDS011;12275;48.550;12.132;2022-08-18T00:50:33;8.05;;;6.35;;
24096;SDS011;12275;48.550;12.132;2022-08-18T00:53:32;7.93;;;5.85;;
24096;SDS011;12275;48.550;12.132;2022-08-18T00:56:07;10.50;;;6.63;;
24096;SDS011;12275;48.550;12.132;2022-08-18T00:58:43;10.20;;;6.32;;
24096;SDS011;12275;48.550;12.132;2022-08-18T01:01:13;9.50;;;6.18;;
24096;SDS011;12275;48.550;12.132;2022-08-18T01:03:40;7.47;;;6.88;;
24096;SDS011;12275;48.550;12.132;2022-08-18T01:06:11;9.63;;;7.10;;
24096;SDS011;12275;48.550;12.132;2022-08-18T01:08:47;14.90;;;6.72;;
24096;SDS011;12275;48.550;12.132;2022-08-18T01:11:13;9.27;;;7.40;;
24096;SDS011;12275;48.550;12.132;2022-08-18T01:13:38;8.00;;;7.28;;
24096;SDS011;12275;48.550;12.132;2022-08-18T01:16:06;7.72;;;6.93;;
24096;SDS011;12275;48.550;12.132;2022-08-18T01:21:36;13.07;;;7.55;;
24096;SDS011;12275;48.550;12.132;2022-08-18T01:24:17;8.27;;;7.32;;
24096;SDS011;12275;48.550;12.132;2022-08-18T01:26:44;8.13;;;7.07;;
24096;SDS011;12275;48.550;12.132;2022-08-18T01:29:15;8.23;;;7.50;;
24096;SDS011;12275;48.550;12.132;2022-08-18T01:31:47;9.35;;;6.68;;
24096;SDS011;12275;48.550;12.132;2022-08-18T01:34:19;9.82;;;7.95;;
24096;SDS011;12275;48.550;12.132;2022-08-18T01:36:46;7.93;;;6.75;;
24096;SDS011;12275;48.550;12.132;2022-08-18T01:39:16;8.50;;;7.05;;
24096;SDS011;12275;48.550;12.132;2022-08-18T01:41:43;7.93;;;7.18;;
24096;SDS011;12275;48.550;12.132;2022-08-18T01:44:08;9.15;;;7.25;;
24096;SDS011;12275;48.550;12.132;2022-08-18T01:46:36;9.73;;;7.65;;
24096;SDS011;12275;48.550;12.132;2022-08-18T01:49:03;12.38;;;7.97;;
24096;SDS011;12275;48.550;12.132;2022-08-18T01:51:32;8.82;;;7.60;;
24096;SDS011;12275;48.550;12.132;2022-08-18T01:53:59;11.82;;;8.13;;
24096;SDS011;12275;48.550;12.132;2022-08-18T01:56:25;8.88;;;7.75;;
24096;SDS011;12275;48.550;12.132;2022-08-18T01:58:52;8.60;;;7.80;;
24096;SDS011;12275;48.550;12.132;2022-08-18T02:01:19;9.27;;;8.35;;
24096;SDS011;12275;48.550;12.132;2022-08-18T02:03:47;10.27;;;7.78;;
24096;SDS011;12275;48.550;12.132;2022-08-18T02:06:18;8.45;;;7.65;;
24096;SDS011;12275;48.550;12.132;2022-08-18T02:08:45;8.75;;;7.63;;
24096;SDS011;12275;48.550;12.132;2022-08-18T02:11:11;8.55;;;7.63;;
24096;SDS011;12275;48.550;12.132;2022-08-18T02:13:38;8.10;;;7.28;;
24096;SDS011;12275;48.550;12.132;2022-08-18T02:16:04;8.20;;;7.40;;
24096;SDS011;12275;48.550;12.132;2022-08-18T02:18:32;9.93;;;8.18;;
24096;SDS011;12275;48.550;12.132;2022-08-18T02:21:04;8.50;;;7.63;;
24096;SDS011;12275;48.550;12.132;2022-08-18T02:23:33;9.00;;;8.13;;
24096;SDS011;12275;48.550;12.132;2022-08-18T02:26:02;7.63;;;6.82;;
24096;SDS011;12275;48.550;12.132;2022-08-18T02:28:29;12.00;;;8.18;;
24096;SDS011;12275;48.550;12.132;2022-08-18T02:30:55;12.45;;;8.27;;
24096;SDS011;12275;48.550;12.132;2022-08-18T02:33:20;7.90;;;7.20;;
24096;SDS011;12275;48.550;12.132;2022-08-18T02:35:51;9.05;;;8.15;;
24096;SDS011;12275;48.550;12.132;2022-08-18T02:38:18;9.05;;;8.25;;
24096;SDS011;12275;48.550;12.132;2022-08-18T02:40:44;11.55;;;8.23;;
24096;SDS011;12275;48.550;12.132;2022-08-18T02:43:10;10.73;;;8.63;;
24096;SDS011;12275;48.550;12.132;2022-08-18T02:45:37;8.55;;;7.75;;
24096;SDS011;12275;48.550;12.132;2022-08-18T02:48:03;10.10;;;8.27;;
24096;SDS011;12275;48.550;12.132;2022-08-18T02:50:30;9.48;;;8.57;;
24096;SDS011;12275;48.550;12.132;2022-08-18T02:52:55;10.90;;;8.98;;
24096;SDS011;12275;48.550;12.132;2022-08-18T02:55:21;9.32;;;8.07;;
24096;SDS011;12275;48.550;12.132;2022-08-18T02:57:50;10.95;;;9.00;;
24096;SDS011;12275;48.550;12.132;2022-08-18T03:00:16;8.98;;;8.07;;
24096;SDS011;12275;48.550;12.132;2022-08-18T03:02:46;8.45;;;7.55;;
24096;SDS011;12275;48.550;12.132;2022-08-18T03:05:15;9.18;;;7.85;;
24096;SDS011;12275;48.550;12.132;2022-08-18T03:07:41;12.40;;;7.50;;
24096;SDS011;12275;48.550;12.132;2022-08-18T03:10:07;8.70;;;7.85;;
24096;SDS011;12275;48.550;12.132;2022-08-18T03:12:34;11.57;;;8.45;;
24096;SDS011;12275;48.550;12.132;2022-08-18T03:15:00;9.23;;;8.30;;
24096;SDS011;12275;48.550;12.132;2022-08-18T03:17:26;11.73;;;8.55;;
24096;SDS011;12275;48.550;12.132;2022-08-18T03:19:52;11.93;;;8.82;;
24096;SDS011;12275;48.550;12.132;2022-08-18T03:22:17;8.82;;;7.93;;
24096;SDS011;12275;48.550;12.132;2022-08-18T03:24:43;10.20;;;9.25;;
24096;SDS011;12275;48.550;12.132;2022-08-18T03:27:09;11.40;;;8.00;;
24096;SDS011;12275;48.550;12.132;2022-08-18T03:29:35;9.48;;;8.52;;
24096;SDS011;12275;48.550;12.132;2022-08-18T03:32:02;10.30;;;8.80;;
24096;SDS011;12275;48.550;12.132;2022-08-18T03:34:30;10.40;;;8.70;;
24096;SDS011;12275;48.550;12.132;2022-08-18T03:36:56;10.60;;;7.85;;
24096;SDS011;12275;48.550;12.132;2022-08-18T03:39:22;11.88;;;8.50;;
24096;SDS011;12275;48.550;12.132;2022-08-18T03:41:51;10.38;;;8.05;;
24096;SDS011;12275;48.550;12.132;2022-08-18T03:44:21;9.60;;;8.40;;
24096;SDS011;12275;48.550;12.132;2022-08-18T03:46:47;12.73;;;8.35;;
24096;SDS011;12275;48.550;12.132;2022-08-18T03:49:14;10.55;;;8.60;;
24096;SDS011;12275;48.550;12.132;2022-08-18T03:51:43;10.65;;;8.75;;
24096;SDS011;12275;48.550;12.132;2022-08-18T03:54:16;9.13;;;8.23;;
24096;SDS011;12275;48.550;12.132;2022-08-18T03:56:43;9.45;;;8.55;;
24096;SDS011;12275;48.550;12.132;2022-08-18T03:59:11;13.85;;;8.63;;
24096;SDS011;12275;48.550;12.132;2022-08-18T04:01:42;11.80;;;9.23;;
24096;SDS011;12275;48.550;12.132;2022-08-18T04:04:10;11.32;;;9.32;;
24096;SDS011;12275;48.550;12.132;2022-08-18T04:06:40;10.68;;;8.40;;
24096;SDS011;12275;48.550;12.132;2022-08-18T04:09:10;9.88;;;8.52;;
24096;SDS011;12275;48.550;12.132;2022-08-18T04:11:37;13.80;;;9.00;;
24096;SDS011;12275;48.550;12.132;2022-08-18T04:14:07;13.90;;;9.45;;
24096;SDS011;12275;48.550;12.132;2022-08-18T04:16:33;10.85;;;9.73;;
24096;SDS011;12275;48.550;12.132;2022-08-18T04:18:59;14.02;;;10.35;;
24096;SDS011;12275;48.550;12.132;2022-08-18T04:21:28;12.75;;;9.23;;
24096;SDS011;12275;48.550;12.132;2022-08-18T04:23:58;10.93;;;9.82;;
24096;SDS011;12275;48.550;12.132;2022-08-18T04:26:29;10.98;;;9.88;;
24096;SDS011;12275;48.550;12.132;2022-08-18T04:28:57;10.70;;;9.35;;
24096;SDS011;12275;48.550;12.132;2022-08-18T04:31:25;11.35;;;9.43;;
24096;SDS011;12275;48.550;12.132;2022-08-18T04:33:51;12.18;;;10.15;;
24096;SDS011;12275;48.550;12.132;2022-08-18T04:36:17;13.90;;;10.48;;
24096;SDS011;12275;48.550;12.132;2022-08-18T04:38:43;11.18;;;10.05;;
24096;SDS011;12275;48.550;12.132;2022-08-18T04:41:12;10.98;;;9.85;;
24096;SDS011;12275;48.550;12.132;2022-08-18T04:43:38;11.55;;;10.27;;
24096;SDS011;12275;48.550;12.132;2022-08-18T04:46:05;12.88;;;10.15;;
24096;SDS011;12275;48.550;12.132;2022-08-18T04:48:34;11.68;;;10.20;;
24096;SDS011;12275;48.550;12.132;2022-08-18T04:53:38;14.70;;;9.68;;
24096;SDS011;12275;48.550;12.132;2022-08-18T04:56:24;12.20;;;10.52;;
24096;SDS011;12275;48.550;12.132;2022-08-18T05:01:40;17.58;;;11.57;;
24096;SDS011;12275;48.550;12.132;2022-08-18T05:04:12;15.60;;;10.43;;
24096;SDS011;12275;48.550;12.132;2022-08-18T05:06:42;14.77;;;10.52;;
24096;SDS011;12275;48.550;12.132;2022-08-18T05:09:10;12.45;;;10.90;;
24096;SDS011;12275;48.550;12.132;2022-08-18T05:11:38;13.73;;;10.90;;
24096;SDS011;12275;48.550;12.132;2022-08-18T05:14:09;12.95;;;11.48;;
24096;SDS011;12275;48.550;12.132;2022-08-18T05:19:10;11.15;;;9.85;;
24096;SDS011;12275;48.550;12.132;2022-08-18T05:21:36;24.25;;;11.90;;
24096;SDS011;12275;48.550;12.132;2022-08-18T05:24:13;13.13;;;11.18;;
24096;SDS011;12275;48.550;12.132;2022-08-18T05:26:47;12.10;;;10.90;;
24096;SDS011;12275;48.550;12.132;2022-08-18T05:29:22;12.23;;;10.93;;
24096;SDS011;12275;48.550;12.132;2022-08-18T05:31:49;12.38;;;11.00;;
24096;SDS011;12275;48.550;12.132;2022-08-18T05:34:20;11.18;;;10.13;;
24096;SDS011;12275;48.550;12.132;2022-08-18T05:42:42;14.05;;;11.50;;
24096;SDS011;12275;48.550;12.132;2022-08-18T05:45:18;12.45;;;11.15;;
24096;SDS011;12275;48.550;12.132;2022-08-18T05:47:44;13.85;;;11.27;;
24096;SDS011;12275;48.550;12.132;2022-08-18T05:50:20;12.57;;;11.32;;
24096;SDS011;12275;48.550;12.132;2022-08-18T05:53:19;12.57;;;11.38;;
24096;SDS011;12275;48.550;12.132;2022-08-18T05:59:02;13.38;;;11.30;;
24096;SDS011;12275;48.550;12.132;2022-08-18T06:01:39;12.95;;;10.80;;
24096;SDS011;12275;48.550;12.132;2022-08-18T06:04:22;12.05;;;10.80;;
24096;SDS011;12275;48.550;12.132;2022-08-18T06:06:55;15.75;;;10.60;;
24096;SDS011;12275;48.550;12.132;2022-08-18T06:11:57;12.38;;;10.00;;
24096;SDS011;12275;48.550;12.132;2022-08-18T06:14:37;11.85;;;10.70;;
24096;SDS011;12275;48.550;12.132;2022-08-18T06:17:09;12.80;;;10.75;;
24096;SDS011;12275;48.550;12.132;2022-08-18T06:22:32;11.50;;;9.98;;
24096;SDS011;12275;48.550;12.132;2022-08-18T06:30:16;11.88;;;10.68;;
24096;SDS011;12275;48.550;12.132;2022-08-18T06:35:56;12.70;;;10.52;;
24096;SDS011;12275;48.550;12.132;2022-08-18T06:41:18;11.20;;;10.07;;
24096;SDS011;12275;48.550;12.132;2022-08-18T06:44:32;18.98;;;9.90;;
24096;SDS011;12275;48.550;12.132;2022-08-18T06:46:39;10.98;;;9.93;;
24096;SDS011;12275;48.550;12.132;2022-08-18T06:49:07;11.85;;;9.88;;
24096;SDS011;12275;48.550;12.132;2022-08-18T06:51:36;11.18;;;9.90;;
24096;SDS011;12275;48.550;12.132;2022-08-18T06:54:04;11.50;;;9.88;;
24096;SDS011;12275;48.550;12.132;2022-08-18T07:01:41;10.57;;;9.55;;
24096;SDS011;12275;48.550;12.132;2022-08-18T07:04:07;13.55;;;9.60;;
24096;SDS011;12275;48.550;12.132;2022-08-18T07:06:33;10.95;;;9.50;;
24096;SDS011;12275;48.550;12.132;2022-08-18T07:09:22;10.43;;;9.43;;
24096;SDS011;12275;48.550;12.132;2022-08-18T07:14:29;12.15;;;10.10;;
24096;SDS011;12275;48.550;12.132;2022-08-18T07:17:06;12.20;;;11.00;;
24096;SDS011;12275;48.550;12.132;2022-08-18T07:19:37;11.10;;;9.93;;
24096;SDS011;12275;48.550;12.132;2022-08-18T07:24:33;11.68;;;10.52;;
24096;SDS011;12275;48.550;12.132;2022-08-18T07:29:33;10.85;;;9.77;;
24096;SDS011;12275;48.550;12.132;2022-08-18T07:32:19;12.25;;;10.20;;
24096;SDS011;12275;48.550;12.132;2022-08-18T07:34:51;12.35;;;9.85;;
24096;SDS011;12275;48.550;12.132;2022-08-18T07:37:28;10.30;;;9.30;;
24096;SDS011;12275;48.550;12.132;2022-08-18T07:40:09;12.07;;;10.30;;
24096;SDS011;12275;48.550;12.132;2022-08-18T07:42:50;12.05;;;9.70;;
24096;SDS011;12275;48.550;12.132;2022-08-18T07:45:41;12.07;;;10.32;;
24096;SDS011;12275;48.550;12.132;2022-08-18T07:48:10;11.63;;;9.90;;
24096;SDS011;12275;48.550;12.132;2022-08-18T07:50:46;10.48;;;9.40;;
24096;SDS011;12275;48.550;12.132;2022-08-18T07:56:16;10.10;;;9.07;;
24096;SDS011;12275;48.550;12.132;2022-08-18T08:01:39;10.13;;;8.95;;
24096;SDS011;12275;48.550;12.132;2022-08-18T08:06:53;11.73;;;8.48;;
24096;SDS011;12275;48.550;12.132;2022-08-18T08:18:13;9.35;;;7.55;;
24096;SDS011;12275;48.550;12.132;2022-08-18T08:20:59;10.77;;;7.70;;
24096;SDS011;12275;48.550;12.132;2022-08-18T08:23:44;9.05;;;8.25;;
24096;SDS011;12275;48.550;12.132;2022-08-18T08:26:26;14.38;;;8.20;;
24096;SDS011;12275;48.550;12.132;2022-08-18T08:31:41;10.43;;;8.70;;
24096;SDS011;12275;48.550;12.132;2022-08-18T08:37:14;8.93;;;8.13;;
24096;SDS011;12275;48.550;12.132;2022-08-18T08:39:56;9.80;;;6.53;;
24096;SDS011;12275;48.550;12.132;2022-08-18T08:45:09;6.57;;;5.95;;
24096;SDS011;12275;48.550;12.132;2022-08-18T08:50:33;6.22;;;5.78;;
24096;SDS011;12275;48.550;12.132;2022-08-18T08:53:26;11.02;;;6.57;;
24096;SDS011;12275;48.550;12.132;2022-08-18T08:55:58;6.68;;;5.97;;
24096;SDS011;12275;48.550;12.132;2022-08-18T09:01:01;7.55;;;6.60;;
24096;SDS011;12275;48.550;12.132;2022-08-18T09:03:48;6.97;;;6.15;;
24096;SDS011;12275;48.550;12.132;2022-08-18T09:06:23;12.38;;;7.18;;
24096;SDS011;12275;48.550;12.132;2022-08-18T09:14:46;8.48;;;7.68;;
24096;SDS011;12275;48.550;12.132;2022-08-18T09:22:53;9.25;;;7.45;;
24096;SDS011;12275;48.550;12.132;2022-08-18T09:25:47;10.38;;;8.13;;
24096;SDS011;12275;48.550;12.132;2022-08-18T09:42:12;8.30;;;6.80;;
24096;SDS011;12275;48.550;12.132;2022-08-18T09:54:47;9.13;;;6.80;;
24096;SDS011;12275;48.550;12.132;2022-08-18T09:57:21;9.75;;;6.57;;
24096;SDS011;12275;48.550;12.132;2022-08-18T09:59:50;8.23;;;7.07;;
24096;SDS011;12275;48.550;12.132;2022-08-18T10:07:46;7.45;;;6.47;;
24096;SDS011;12275;48.550;12.132;2022-08-18T10:20:54;7.07;;;6.30;;
24096;SDS011;12275;48.550;12.132;2022-08-18T10:23:43;7.22;;;6.60;;
24096;SDS011;12275;48.550;12.132;2022-08-18T10:32:15;6.72;;;6.03;;
24096;SDS011;12275;48.550;12.132;2022-08-18T10:44:35;8.57;;;5.88;;
24096;SDS011;12275;48.550;12.132;2022-08-18T10:47:06;6.07;;;5.68;;
24096;SDS011;12275;48.550;12.132;2022-08-18T10:49:33;6.07;;;5.53;;
24096;SDS011;12275;48.550;12.132;2022-08-18T10:52:10;5.30;;;4.80;;
24096;SDS011;12275;48.550;12.132;2022-08-18T11:00:54;5.35;;;4.78;;
24096;SDS011;12275;48.550;12.132;2022-08-18T11:06:03;5.80;;;5.40;;
24096;SDS011;12275;48.550;12.132;2022-08-18T11:08:40;6.30;;;5.80;;
24096;SDS011;12275;48.550;12.132;2022-08-18T11:11:09;6.40;;;5.38;;
24096;SDS011;12275;48.550;12.132;2022-08-18T11:26:30;6.70;;;5.43;;
24096;SDS011;12275;48.550;12.132;2022-08-18T11:28:58;4.90;;;4.43;;
24096;SDS011;12275;48.550;12.132;2022-08-18T11:31:42;5.15;;;4.57;;
24096;SDS011;12275;48.550;12.132;2022-08-18T11:34:14;6.45;;;5.00;;
24096;SDS011;12275;48.550;12.132;2022-08-18T11:36:42;6.37;;;4.93;;
24096;SDS011;12275;48.550;12.132;2022-08-18T11:39:08;5.45;;;5.05;;
24096;SDS011;12275;48.550;12.132;2022-08-18T11:41:35;7.35;;;5.55;;
24096;SDS011;12275;48.550;12.132;2022-08-18T11:44:02;6.10;;;5.47;;
24096;SDS011;12275;48.550;12.132;2022-08-18T11:46:37;7.30;;;5.30;;
24096;SDS011;12275;48.550;12.132;2022-08-18T11:51:52;14.05;;;11.65;;
24096;SDS011;12275;48.550;12.132;2022-08-18T11:54:22;6.32;;;5.80;;
24096;SDS011;12275;48.550;12.132;2022-08-18T11:59:51;6.03;;;5.40;;
24096;SDS011;12275;48.550;12.132;2022-08-18T12:02:18;9.07;;;5.40;;
24096;SDS011;12275;48.550;12.132;2022-08-18T12:04:48;7.82;;;5.65;;
24096;SDS011;12275;48.550;12.132;2022-08-18T12:07:16;7.57;;;5.82;;
24096;SDS011;12275;48.550;12.132;2022-08-18T12:10:18;6.47;;;5.90;;
24096;SDS011;12275;48.550;12.132;2022-08-18T12:12:52;6.95;;;6.00;;
24096;SDS011;12275;48.550;12.132;2022-08-18T12:17:44;5.68;;;5.15;;
24096;SDS011;12275;48.550;12.132;2022-08-18T12:20:12;6.63;;;5.95;;
24096;SDS011;12275;48.550;12.132;2022-08-18T12:22:39;6.40;;;5.38;;
24096;SDS011;12275;48.550;12.132;2022-08-18T12:25:08;6.05;;;5.55;;
24096;SDS011;12275;48.550;12.132;2022-08-18T12:27:37;5.60;;;5.20;;
24096;SDS011;12275;48.550;12.132;2022-08-18T12:30:03;7.82;;;5.85;;
24096;SDS011;12275;48.550;12.132;2022-08-18T12:32:31;7.38;;;5.78;;
24096;SDS011;12275;48.550;12.132;2022-08-18T12:34:58;5.43;;;4.72;;
24096;SDS011;12275;48.550;12.132;2022-08-18T12:37:25;5.55;;;4.95;;
24096;SDS011;12275;48.550;12.132;2022-08-18T12:39:52;8.77;;;5.60;;
24096;SDS011;12275;48.550;12.132;2022-08-18T12:42:18;7.53;;;5.63;;
24096;SDS011;12275;48.550;12.132;2022-08-18T12:44:45;5.32;;;4.82;;
24096;SDS011;12275;48.550;12.132;2022-08-18T12:47:13;9.25;;;5.07;;
24096;SDS011;12275;48.550;12.132;2022-08-18T12:49:41;5.82;;;5.32;;
24096;SDS011;12275;48.550;12.132;2022-08-18T12:52:07;5.97;;;5.35;;
24096;SDS011;12275;48.550;12.132;2022-08-18T12:54:34;6.18;;;5.35;;
24096;SDS011;12275;48.550;12.132;2022-08-18T12:57:00;8.20;;;5.15;;
24096;SDS011;12275;48.550;12.132;2022-08-18T12:59:27;6.88;;;6.18;;
24096;SDS011;12275;48.550;12.132;2022-08-18T13:01:53;6.75;;;6.05;;
24096;SDS011;12275;48.550;12.132;2022-08-18T13:04:19;6.70;;;5.68;;
24096;SDS011;12275;48.550;12.132;2022-08-18T13:06:55;7.53;;;5.40;;
24096;SDS011;12275;48.550;12.132;2022-08-18T13:09:22;6.32;;;5.35;;
24096;SDS011;12275;48.550;12.132;2022-08-18T13:11:48;9.18;;;5.78;;
24096;SDS011;12275;48.550;12.132;2022-08-18T13:14:15;5.53;;;5.07;;
24096;SDS011;12275;48.550;12.132;2022-08-18T13:16:41;6.35;;;5.75;;
24096;SDS011;12275;48.550;12.132;2022-08-18T13:19:10;8.95;;;6.60;;
24096;SDS011;12275;48.550;12.132;2022-08-18T13:21:37;6.75;;;5.72;;
24096;SDS011;12275;48.550;12.132;2022-08-18T13:24:03;6.45;;;5.85;;
24096;SDS011;12275;48.550;12.132;2022-08-18T13:26:30;5.88;;;5.28;;
24096;SDS011;12275;48.550;12.132;2022-08-18T13:28:58;5.97;;;5.35;;
24096;SDS011;12275;48.550;12.132;2022-08-18T13:31:27;5.80;;;4.80;;
24096;SDS011;12275;48.550;12.132;2022-08-18T13:33:53;6.80;;;5.30;;
24096;SDS011;12275;48.550;12.132;2022-08-18T13:36:23;5.07;;;4.63;;
24096;SDS011;12275;48.550;12.132;2022-08-18T13:38:50;6.00;;;4.97;;
24096;SDS011;12275;48.550;12.132;2022-08-18T13:41:18;7.78;;;5.25;;
24096;SDS011;12275;48.550;12.132;2022-08-18T13:43:45;6.05;;;5.40;;
24096;SDS011;12275;48.550;12.132;2022-08-18T13:46:13;9.93;;;5.32;;
24096;SDS011;12275;48.550;12.132;2022-08-18T13:48:41;5.03;;;4.60;;
24096;SDS011;12275;48.550;12.132;2022-08-18T13:51:07;6.88;;;5.40;;
24096;SDS011;12275;48.550;12.132;2022-08-18T13:53:38;6.30;;;5.70;;
24096;SDS011;12275;48.550;12.132;2022-08-18T13:56:04;6.28;;;5.15;;
24096;SDS011;12275;48.550;12.132;2022-08-18T13:58:30;5.28;;;4.80;;
24096;SDS011;12275;48.550;12.132;2022-08-18T14:01:00;5.22;;;4.75;;
24096;SDS011;12275;48.550;12.132;2022-08-18T14:03:28;8.82;;;5.00;;
24096;SDS011;12275;48.550;12.132;2022-08-18T14:05:54;6.68;;;5.80;;
24096;SDS011;12275;48.550;12.132;2022-08-18T14:08:22;5.57;;;4.95;;
24096;SDS011;12275;48.550;12.132;2022-08-18T14:10:50;7.28;;;5.10;;
24096;SDS011;12275;48.550;12.132;2022-08-18T14:13:18;5.97;;;5.47;;
24096;SDS011;12275;48.550;12.132;2022-08-18T14:15:45;9.70;;;5.13;;
24096;SDS011;12275;48.550;12.132;2022-08-18T14:18:11;5.95;;;5.53;;
24096;SDS011;12275;48.550;12.132;2022-08-18T14:20:37;6.00;;;5.38;;
24096;SDS011;12275;48.550;12.132;2022-08-18T14:23:22;10.35;;;7.38;;
24096;SDS011;12275;48.550;12.132;2022-08-18T14:26:06;9.82;;;6.78;;
24096;SDS011;12275;48.550;12.132;2022-08-18T14:28:50;8.20;;;5.70;;
24096;SDS011;12275;48.550;12.132;2022-08-18T14:31:16;8.63;;;5.75;;
24096;SDS011;12275;48.550;12.132;2022-08-18T14:33:43;7.28;;;6.57;;
24096;SDS011;12275;48.550;12.132;2022-08-18T14:36:10;5.93;;;5.13;;
24096;SDS011;12275;48.550;12.132;2022-08-18T14:38:36;7.97;;;4.75;;
24096;SDS011;12275;48.550;12.132;2022-08-18T14:41:03;6.80;;;5.03;;
24096;SDS011;12275;48.550;12.132;2022-08-18T14:43:34;5.50;;;4.82;;
24096;SDS011;12275;48.550;12.132;2022-08-18T14:46:03;5.75;;;5.25;;
24096;SDS011;12275;48.550;12.132;2022-08-18T14:48:30;6.28;;;4.88;;
24096;SDS011;12275;48.550;12.132;2022-08-18T14:50:57;6.53;;;4.60;;
24096;SDS011;12275;48.550;12.132;2022-08-18T14:53:26;5.85;;;5.45;;
24096;SDS011;12275;48.550;12.132;2022-08-18T14:55:54;7.40;;;4.80;;
24096;SDS011;12275;48.550;12.132;2022-08-18T14:58:22;5.55;;;5.05;;
24096;SDS011;12275;48.550;12.132;2022-08-18T15:01:04;5.60;;;4.70;;
24096;SDS011;12275;48.550;12.132;2022-08-18T15:03:32;7.05;;;4.90;;
24096;SDS011;12275;48.550;12.132;2022-08-18T15:06:00;4.95;;;4.55;;
24096;SDS011;12275;48.550;12.132;2022-08-18T15:08:27;4.97;;;4.53;;
24096;SDS011;12275;48.550;12.132;2022-08-18T15:10:54;6.88;;;5.53;;
24096;SDS011;12275;48.550;12.132;2022-08-18T15:13:20;6.22;;;5.63;;
24096;SDS011;12275;48.550;12.132;2022-08-18T15:15:46;6.38;;;5.05;;
24096;SDS011;12275;48.550;12.132;2022-08-18T15:18:12;6.38;;;4.90;;
24096;SDS011;12275;48.550;12.132;2022-08-18T15:20:37;6.13;;;4.50;;
24096;SDS011;12275;48.550;12.132;2022-08-18T15:23:24;6.78;;;4.80;;
24096;SDS011;12275;48.550;12.132;2022-08-18T15:26:09;5.50;;;4.82;;
24096;SDS011;12275;48.550;12.132;2022-08-18T15:28:36;5.45;;;5.05;;
24096;SDS011;12275;48.550;12.132;2022-08-18T15:31:02;5.55;;;5.00;;
24096;SDS011;12275;48.550;12.132;2022-08-18T15:33:28;8.75;;;5.18;;
24096;SDS011;12275;48.550;12.132;2022-08-18T15:35:54;5.82;;;5.22;;
24096;SDS011;12275;48.550;12.132;2022-08-18T15:38:20;5.55;;;5.05;;
24096;SDS011;12275;48.550;12.132;2022-08-18T15:40:52;6.68;;;5.20;;
24096;SDS011;12275;48.550;12.132;2022-08-18T15:43:22;6.10;;;5.50;;
24096;SDS011;12275;48.550;12.132;2022-08-18T15:45:48;6.38;;;5.78;;
24096;SDS011;12275;48.550;12.132;2022-08-18T15:48:15;6.55;;;5.95;;
24096;SDS011;12275;48.550;12.132;2022-08-18T15:50:43;7.90;;;5.70;;
24096;SDS011;12275;48.550;12.132;2022-08-18T15:53:12;7.60;;;5.90;;
24096;SDS011;12275;48.550;12.132;2022-08-18T15:55:43;8.18;;;5.30;;
24096;SDS011;12275;48.550;12.132;2022-08-18T15:58:09;6.93;;;6.20;;
24096;SDS011;12275;48.550;12.132;2022-08-18T16:00:36;7.22;;;5.90;;
24096;SDS011;12275;48.550;12.132;2022-08-18T16:03:05;8.40;;;6.10;;
24096;SDS011;12275;48.550;12.132;2022-08-18T16:05:34;5.47;;;5.07;;
24096;SDS011;12275;48.550;12.132;2022-08-18T16:08:03;6.03;;;5.38;;
24096;SDS011;12275;48.550;12.132;2022-08-18T16:10:30;5.95;;;5.45;;
24096;SDS011;12275;48.550;12.132;2022-08-18T16:12:58;10.60;;;9.45;;
24096;SDS011;12275;48.550;12.132;2022-08-18T16:15:25;6.78;;;6.07;;
24096;SDS011;12275;48.550;12.132;2022-08-18T16:17:53;6.30;;;5.72;;
24096;SDS011;12275;48.550;12.132;2022-08-18T16:20:19;6.53;;;5.40;;
24096;SDS011;12275;48.550;12.132;2022-08-18T16:22:48;5.53;;;5.13;;
24096;SDS011;12275;48.550;12.132;2022-08-18T16:25:14;7.43;;;5.82;;
24096;SDS011;12275;48.550;12.132;2022-08-18T16:27:41;5.78;;;5.30;;
24096;SDS011;12275;48.550;12.132;2022-08-18T16:30:08;8.02;;;5.28;;
24096;SDS011;12275;48.550;12.132;2022-08-18T16:32:35;10.50;;;5.32;;
24096;SDS011;12275;48.550;12.132;2022-08-18T16:35:02;5.65;;;5.20;;
24096;SDS011;12275;48.550;12.132;2022-08-18T16:37:28;9.00;;;5.30;;
24096;SDS011;12275;48.550;12.132;2022-08-18T16:39:54;5.57;;;5.18;;
24096;SDS011;12275;48.550;12.132;2022-08-18T16:42:20;6.07;;;5.50;;
24096;SDS011;12275;48.550;12.132;2022-08-18T16:44:46;5.85;;;5.30;;
24096;SDS011;12275;48.550;12.132;2022-08-18T16:47:11;9.02;;;6.13;;
24096;SDS011;12275;48.550;12.132;2022-08-18T16:49:41;10.68;;;5.85;;
24096;SDS011;12275;48.550;12.132;2022-08-18T16:52:09;6.15;;;5.55;;
24096;SDS011;12275;48.550;12.132;2022-08-18T16:54:35;7.47;;;5.88;;
24096;SDS011;12275;48.550;12.132;2022-08-18T16:57:01;6.13;;;5.53;;
24096;SDS011;12275;48.550;12.132;2022-08-18T16:59:26;8.85;;;5.75;;
24096;SDS011;12275;48.550;12.132;2022-08-18T17:04:55;10.83;;;6.43;;
24096;SDS011;12275;48.550;12.132;2022-08-18T17:07:26;7.43;;;6.13;;
24096;SDS011;12275;48.550;12.132;2022-08-18T17:09:56;9.27;;;5.93;;
24096;SDS011;12275;48.550;12.132;2022-08-18T17:12:23;7.07;;;6.28;;
24096;SDS011;12275;48.550;12.132;2022-08-18T17:14:50;7.63;;;6.22;;
24096;SDS011;12275;48.550;12.132;2022-08-18T17:17:16;6.53;;;5.90;;
24096;SDS011;12275;48.550;12.132;2022-08-18T17:19:42;8.15;;;6.20;;
24096;SDS011;12275;48.550;12.132;2022-08-18T17:22:09;10.32;;;6.40;;
24096;SDS011;12275;48.550;12.132;2022-08-18T17:24:36;9.00;;;5.93;;
24096;SDS011;12275;48.550;12.132;2022-08-18T17:27:10;10.75;;;6.03;;
24096;SDS011;12275;48.550;12.132;2022-08-18T17:30:13;9.88;;;5.88;;
24096;SDS011;12275;48.550;12.132;2022-08-18T17:35:12;8.60;;;6.10;;
24096;SDS011;12275;48.550;12.132;2022-08-18T17:38:02;7.47;;;5.70;;
24096;SDS011;12275;48.550;12.132;2022-08-18T17:40:51;9.07;;;6.30;;
24096;SDS011;12275;48.550;12.132;2022-08-18T17:43:20;6.68;;;6.05;;
24096;SDS011;12275;48.550;12.132;2022-08-18T17:45:57;6.55;;;6.03;;
24096;SDS011;12275;48.550;12.132;2022-08-18T17:48:37;6.43;;;5.78;;